sensor_id;sensor_type;location;lat;lon;timestamp;P1;durP1;ratioP1;P2;durP2;ratioP2
12208;SDS011;6167;43.080;25.634;2023-03-25T00:00:58;36.80;;;20.60;;
12208;SDS011;6167;43.080;25.634;2023-03-25T00:03:25;30.90;;;20.07;;
12208;SDS011;6167;43.080;25.634;2023-03-25T00:05:53;37.33;;;21.53;;
12208;SDS011;6167;43.080;25.634;2023-03-25T00:08:20;34.43;;;20.57;;
12208;SDS011;6167;43.080;25.634;2023-03-25T00:10:51;15.33;;;10.93;;
12208;SDS011;6167;43.080;25.634;2023-03-25T00:13:18;9.77;;;7.83;;
12208;SDS011;6167;43.080;25.634;2023-03-25T00:15:45;23.07;;;15.03;;
12208;SDS011;6167;43.080;25.634;2023-03-25T00:18:12;9.07;;;6.33;;
12208;SDS011;6167;43.080;25.634;2023-03-25T00:20:41;12.83;;;9.47;;
12208;SDS011;6167;43.080;25.634;2023-03-25T00:23:10;14.60;;;7.97;;
12208;SDS011;6167;43.080;25.634;2023-03-25T00:25:37;10.83;;;7.80;;
12208;SDS011;6167;43.080;25.634;2023-03-25T00:28:05;21.80;;;13.53;;
12208;SDS011;6167;43.080;25.634;2023-03-25T00:30:32;18.50;;;12.67;;
12208;SDS011;6167;43.080;25.634;2023-03-25T00:32:59;20.20;;;13.90;;
12208;SDS011;6167;43.080;25.634;2023-03-25T00:35:27;19.37;;;14.63;;
12208;SDS011;6167;43.080;25.634;2023-03-25T00:37:54;20.77;;;15.50;;
12208;SDS011;6167;43.080;25.634;2023-03-25T00:40:24;21.23;;;15.10;;
12208;SDS011;6167;43.080;25.634;2023-03-25T00:42:52;22.77;;;16.90;;
12208;SDS011;6167;43.080;25.634;2023-03-25T00:45:21;23.00;;;15.73;;
12208;SDS011;6167;43.080;25.634;2023-03-25T00:47:48;24.00;;;16.23;;
12208;SDS011;6167;43.080;25.634;2023-03-25T00:50:16;21.43;;;15.07;;
12208;SDS011;6167;43.080;25.634;2023-03-25T00:52:43;25.07;;;16.50;;
12208;SDS011;6167;43.080;25.634;2023-03-25T00:55:09;18.80;;;13.33;;
12208;SDS011;6167;43.080;25.634;2023-03-25T00:57:36;20.63;;;14.93;;
12208;SDS011;6167;43.080;25.634;2023-03-25T01:00:03;20.07;;;14.53;;
12208;SDS011;6167;43.080;25.634;2023-03-25T01:02:34;20.27;;;15.67;;
12208;SDS011;6167;43.080;25.634;2023-03-25T01:05:00;21.37;;;14.60;;
12208;SDS011;6167;43.080;25.634;2023-03-25T01:07:28;18.87;;;14.50;;
12208;SDS011;6167;43.080;25.634;2023-03-25T01:09:56;24.80;;;15.20;;
12208;SDS011;6167;43.080;25.634;2023-03-25T01:12:22;22.10;;;15.43;;
12208;SDS011;6167;43.080;25.634;2023-03-25T01:14:49;21.47;;;14.77;;
12208;SDS011;6167;43.080;25.634;2023-03-25T01:17:16;18.63;;;15.00;;
12208;SDS011;6167;43.080;25.634;2023-03-25T01:19:44;23.00;;;15.07;;
12208;SDS011;6167;43.080;25.634;2023-03-25T01:22:11;20.33;;;15.17;;
12208;SDS011;6167;43.080;25.634;2023-03-25T01:24:38;17.43;;;13.73;;
12208;SDS011;6167;43.080;25.634;2023-03-25T01:27:05;20.97;;;13.57;;
12208;SDS011;6167;43.080;25.634;2023-03-25T01:29:31;20.40;;;13.87;;
12208;SDS011;6167;43.080;25.634;2023-03-25T01:31:58;18.57;;;13.40;;
12208;SDS011;6167;43.080;25.634;2023-03-25T01:34:25;21.00;;;14.37;;
12208;SDS011;6167;43.080;25.634;2023-03-25T01:36:53;17.57;;;13.10;;
12208;SDS011;6167;43.080;25.634;2023-03-25T01:39:20;18.70;;;13.20;;
12208;SDS011;6167;43.080;25.634;2023-03-25T01:41:48;18.17;;;13.43;;
12208;SDS011;6167;43.080;25.634;2023-03-25T01:47:02;14.90;;;11.17;;
12208;SDS011;6167;43.080;25.634;2023-03-25T01:49:32;11.60;;;10.37;;
12208;SDS011;6167;43.080;25.634;2023-03-25T01:52:05;13.37;;;9.97;;
12208;SDS011;6167;43.080;25.634;2023-03-25T01:54:34;13.73;;;10.20;;
12208;SDS011;6167;43.080;25.634;2023-03-25T01:57:01;12.17;;;9.60;;
12208;SDS011;6167;43.080;25.634;2023-03-25T01:59:28;11.47;;;8.73;;
12208;SDS011;6167;43.080;25.634;2023-03-25T02:01:55;13.13;;;8.93;;
12208;SDS011;6167;43.080;25.634;2023-03-25T02:04:24;10.67;;;8.57;;
12208;SDS011;6167;43.080;25.634;2023-03-25T02:06:53;10.10;;;8.07;;
12208;SDS011;6167;43.080;25.634;2023-03-25T02:09:22;9.47;;;8.47;;
12208;SDS011;6167;43.080;25.634;2023-03-25T02:11:50;10.80;;;8.27;;
12208;SDS011;6167;43.080;25.634;2023-03-25T02:14:19;9.27;;;8.27;;
12208;SDS011;6167;43.080;25.634;2023-03-25T02:16:48;10.77;;;8.23;;
12208;SDS011;6167;43.080;25.634;2023-03-25T02:25:01;11.70;;;9.20;;
12208;SDS011;6167;43.080;25.634;2023-03-25T02:27:46;9.33;;;8.10;;
12208;SDS011;6167;43.080;25.634;2023-03-25T02:30:24;9.57;;;8.10;;
12208;SDS011;6167;43.080;25.634;2023-03-25T02:35:40;10.30;;;8.40;;
12208;SDS011;6167;43.080;25.634;2023-03-25T02:38:20;12.00;;;8.93;;
12208;SDS011;6167;43.080;25.634;2023-03-25T02:40:51;10.73;;;9.07;;
12208;SDS011;6167;43.080;25.634;2023-03-25T02:43:22;10.00;;;7.87;;
12208;SDS011;6167;43.080;25.634;2023-03-25T02:45:50;9.60;;;8.63;;
12208;SDS011;6167;43.080;25.634;2023-03-25T02:48:19;10.80;;;8.70;;
12208;SDS011;6167;43.080;25.634;2023-03-25T02:50:47;11.63;;;8.70;;
12208;SDS011;6167;43.080;25.634;2023-03-25T02:53:18;12.03;;;8.43;;
12208;SDS011;6167;43.080;25.634;2023-03-25T02:55:47;9.43;;;8.13;;
12208;SDS011;6167;43.080;25.634;2023-03-25T02:58:16;12.00;;;8.10;;
12208;SDS011;6167;43.080;25.634;2023-03-25T03:00:43;10.03;;;8.20;;
12208;SDS011;6167;43.080;25.634;2023-03-25T03:03:10;9.03;;;8.00;;
12208;SDS011;6167;43.080;25.634;2023-03-25T03:05:37;9.90;;;8.13;;
12208;SDS011;6167;43.080;25.634;2023-03-25T03:08:13;15.20;;;8.10;;
12208;SDS011;6167;43.080;25.634;2023-03-25T03:10:45;11.37;;;8.60;;
12208;SDS011;6167;43.080;25.634;2023-03-25T03:13:18;9.30;;;8.30;;
12208;SDS011;6167;43.080;25.634;2023-03-25T03:15:49;9.17;;;8.17;;
12208;SDS011;6167;43.080;25.634;2023-03-25T03:18:20;11.63;;;8.30;;
12208;SDS011;6167;43.080;25.634;2023-03-25T03:20:53;10.17;;;8.10;;
12208;SDS011;6167;43.080;25.634;2023-03-25T03:23:23;9.50;;;8.17;;
12208;SDS011;6167;43.080;25.634;2023-03-25T03:25:51;11.67;;;8.20;;
12208;SDS011;6167;43.080;25.634;2023-03-25T03:28:24;11.23;;;9.23;;
12208;SDS011;6167;43.080;25.634;2023-03-25T03:30:53;11.47;;;8.27;;
12208;SDS011;6167;43.080;25.634;2023-03-25T03:33:24;11.50;;;8.37;;
12208;SDS011;6167;43.080;25.634;2023-03-25T03:35:53;10.50;;;9.37;;
12208;SDS011;6167;43.080;25.634;2023-03-25T03:38:21;9.90;;;8.20;;
12208;SDS011;6167;43.080;25.634;2023-03-25T03:40:51;8.90;;;7.90;;
12208;SDS011;6167;43.080;25.634;2023-03-25T03:43:19;10.10;;;8.47;;
12208;SDS011;6167;43.080;25.634;2023-03-25T03:45:50;9.17;;;8.37;;
12208;SDS011;6167;43.080;25.634;2023-03-25T03:48:19;11.57;;;8.70;;
12208;SDS011;6167;43.080;25.634;2023-03-25T03:50:46;10.80;;;8.47;;
12208;SDS011;6167;43.080;25.634;2023-03-25T03:53:16;11.47;;;8.87;;
12208;SDS011;6167;43.080;25.634;2023-03-25T03:55:45;10.97;;;8.63;;
12208;SDS011;6167;43.080;25.634;2023-03-25T03:58:15;11.20;;;8.53;;
12208;SDS011;6167;43.080;25.634;2023-03-25T04:00:47;12.33;;;8.50;;
12208;SDS011;6167;43.080;25.634;2023-03-25T04:03:17;12.33;;;9.20;;
12208;SDS011;6167;43.080;25.634;2023-03-25T04:05:51;12.63;;;9.17;;
12208;SDS011;6167;43.080;25.634;2023-03-25T04:08:21;10.40;;;9.30;;
12208;SDS011;6167;43.080;25.634;2023-03-25T04:10:54;12.13;;;10.20;;
12208;SDS011;6167;43.080;25.634;2023-03-25T04:13:23;13.57;;;8.93;;
12208;SDS011;6167;43.080;25.634;2023-03-25T04:15:51;10.77;;;8.70;;
12208;SDS011;6167;43.080;25.634;2023-03-25T04:18:19;13.10;;;9.07;;
12208;SDS011;6167;43.080;25.634;2023-03-25T04:20:47;10.93;;;8.43;;
12208;SDS011;6167;43.080;25.634;2023-03-25T04:23:14;11.00;;;8.17;;
12208;SDS011;6167;43.080;25.634;2023-03-25T04:25:40;10.03;;;8.23;;
12208;SDS011;6167;43.080;25.634;2023-03-25T04:28:07;10.10;;;8.13;;
12208;SDS011;6167;43.080;25.634;2023-03-25T04:30:38;11.03;;;8.63;;
12208;SDS011;6167;43.080;25.634;2023-03-25T04:33:05;11.43;;;8.43;;
12208;SDS011;6167;43.080;25.634;2023-03-25T04:35:33;12.07;;;8.73;;
12208;SDS011;6167;43.080;25.634;2023-03-25T04:37:59;10.63;;;8.10;;
12208;SDS011;6167;43.080;25.634;2023-03-25T04:40:26;11.40;;;8.00;;
12208;SDS011;6167;43.080;25.634;2023-03-25T04:42:52;10.60;;;8.27;;
12208;SDS011;6167;43.080;25.634;2023-03-25T04:45:20;13.00;;;9.40;;
12208;SDS011;6167;43.080;25.634;2023-03-25T04:47:49;9.40;;;8.40;;
12208;SDS011;6167;43.080;25.634;2023-03-25T04:50:19;11.77;;;7.93;;
12208;SDS011;6167;43.080;25.634;2023-03-25T04:52:48;11.73;;;8.07;;
12208;SDS011;6167;43.080;25.634;2023-03-25T04:55:15;10.87;;;7.80;;
12208;SDS011;6167;43.080;25.634;2023-03-25T04:57:43;10.43;;;7.23;;
12208;SDS011;6167;43.080;25.634;2023-03-25T05:00:11;12.33;;;8.20;;
12208;SDS011;6167;43.080;25.634;2023-03-25T05:02:41;9.53;;;7.50;;
12208;SDS011;6167;43.080;25.634;2023-03-25T05:05:09;11.20;;;8.00;;
12208;SDS011;6167;43.080;25.634;2023-03-25T05:07:43;11.43;;;7.90;;
12208;SDS011;6167;43.080;25.634;2023-03-25T05:10:12;10.50;;;7.50;;
12208;SDS011;6167;43.080;25.634;2023-03-25T05:12:39;10.97;;;7.73;;
12208;SDS011;6167;43.080;25.634;2023-03-25T05:15:06;10.40;;;8.07;;
12208;SDS011;6167;43.080;25.634;2023-03-25T05:17:32;12.90;;;8.90;;
12208;SDS011;6167;43.080;25.634;2023-03-25T05:19:59;13.23;;;9.63;;
12208;SDS011;6167;43.080;25.634;2023-03-25T05:22:25;12.47;;;10.03;;
12208;SDS011;6167;43.080;25.634;2023-03-25T05:24:52;9.73;;;8.23;;
12208;SDS011;6167;43.080;25.634;2023-03-25T05:27:21;9.97;;;8.20;;
12208;SDS011;6167;43.080;25.634;2023-03-25T05:29:48;10.03;;;8.23;;
12208;SDS011;6167;43.080;25.634;2023-03-25T05:32:16;10.43;;;7.43;;
12208;SDS011;6167;43.080;25.634;2023-03-25T05:34:42;16.53;;;8.27;;
12208;SDS011;6167;43.080;25.634;2023-03-25T05:37:11;11.23;;;8.20;;
12208;SDS011;6167;43.080;25.634;2023-03-25T05:39:37;10.57;;;8.13;;
12208;SDS011;6167;43.080;25.634;2023-03-25T05:42:04;10.80;;;8.47;;
12208;SDS011;6167;43.080;25.634;2023-03-25T05:44:32;9.47;;;8.13;;
12208;SDS011;6167;43.080;25.634;2023-03-25T05:46:59;16.83;;;12.20;;
12208;SDS011;6167;43.080;25.634;2023-03-25T05:49:25;20.57;;;14.97;;
12208;SDS011;6167;43.080;25.634;2023-03-25T05:51:52;11.47;;;8.37;;
12208;SDS011;6167;43.080;25.634;2023-03-25T05:54:20;13.87;;;7.77;;
12208;SDS011;6167;43.080;25.634;2023-03-25T05:56:48;19.83;;;16.37;;
12208;SDS011;6167;43.080;25.634;2023-03-25T05:59:15;11.63;;;7.70;;
12208;SDS011;6167;43.080;25.634;2023-03-25T06:01:43;11.07;;;9.07;;
12208;SDS011;6167;43.080;25.634;2023-03-25T06:04:10;12.80;;;8.53;;
12208;SDS011;6167;43.080;25.634;2023-03-25T06:06:37;9.80;;;7.83;;
12208;SDS011;6167;43.080;25.634;2023-03-25T06:09:04;12.15;;;9.13;;
12208;SDS011;6167;43.080;25.634;2023-03-25T06:11:31;15.63;;;12.07;;
12208;SDS011;6167;43.080;25.634;2023-03-25T06:14:11;9.40;;;7.43;;
12208;SDS011;6167;43.080;25.634;2023-03-25T06:16:37;11.73;;;7.35;;
12208;SDS011;6167;43.080;25.634;2023-03-25T06:19:05;10.38;;;7.70;;
12208;SDS011;6167;43.080;25.634;2023-03-25T06:21:33;13.50;;;7.63;;
12208;SDS011;6167;43.080;25.634;2023-03-25T06:24:00;12.05;;;7.60;;
12208;SDS011;6167;43.080;25.634;2023-03-25T06:26:26;9.85;;;7.40;;
12208;SDS011;6167;43.080;25.634;2023-03-25T06:28:53;13.10;;;7.30;;
12208;SDS011;6167;43.080;25.634;2023-03-25T06:31:20;9.40;;;6.68;;
12208;SDS011;6167;43.080;25.634;2023-03-25T06:33:50;11.32;;;7.40;;
12208;SDS011;6167;43.080;25.634;2023-03-25T06:36:18;13.65;;;7.88;;
12208;SDS011;6167;43.080;25.634;2023-03-25T06:38:45;11.55;;;7.13;;
12208;SDS011;6167;43.080;25.634;2023-03-25T06:41:12;9.00;;;7.25;;
12208;SDS011;6167;43.080;25.634;2023-03-25T06:43:39;7.95;;;6.50;;
12208;SDS011;6167;43.080;25.634;2023-03-25T06:46:06;8.60;;;6.45;;
12208;SDS011;6167;43.080;25.634;2023-03-25T06:48:33;7.38;;;6.10;;
12208;SDS011;6167;43.080;25.634;2023-03-25T06:50:59;7.28;;;6.13;;
12208;SDS011;6167;43.080;25.634;2023-03-25T06:53:27;6.60;;;5.82;;
12208;SDS011;6167;43.080;25.634;2023-03-25T06:55:55;6.22;;;5.57;;
12208;SDS011;6167;43.080;25.634;2023-03-25T06:58:21;9.43;;;5.95;;
12208;SDS011;6167;43.080;25.634;2023-03-25T07:00:51;11.40;;;5.93;;
12208;SDS011;6167;43.080;25.634;2023-03-25T07:03:18;8.00;;;5.80;;
12208;SDS011;6167;43.080;25.634;2023-03-25T07:05:46;10.15;;;6.93;;
12208;SDS011;6167;43.080;25.634;2023-03-25T07:08:12;8.32;;;6.50;;
12208;SDS011;6167;43.080;25.634;2023-03-25T07:10:41;8.57;;;6.30;;
12208;SDS011;6167;43.080;25.634;2023-03-25T07:13:07;10.25;;;5.78;;
12208;SDS011;6167;43.080;25.634;2023-03-25T07:15:34;7.32;;;5.15;;
12208;SDS011;6167;43.080;25.634;2023-03-25T07:18:01;6.90;;;5.00;;
12208;SDS011;6167;43.080;25.634;2023-03-25T07:20:29;6.07;;;4.78;;
12208;SDS011;6167;43.080;25.634;2023-03-25T07:22:56;5.70;;;5.05;;
12208;SDS011;6167;43.080;25.634;2023-03-25T07:25:22;6.60;;;5.30;;
12208;SDS011;6167;43.080;25.634;2023-03-25T07:27:50;6.63;;;4.97;;
12208;SDS011;6167;43.080;25.634;2023-03-25T07:30:17;7.82;;;5.20;;
12208;SDS011;6167;43.080;25.634;2023-03-25T07:32:44;7.80;;;5.38;;
12208;SDS011;6167;43.080;25.634;2023-03-25T07:35:10;8.27;;;7.47;;
12208;SDS011;6167;43.080;25.634;2023-03-25T07:37:37;6.00;;;5.40;;
12208;SDS011;6167;43.080;25.634;2023-03-25T07:40:04;6.13;;;5.18;;
12208;SDS011;6167;43.080;25.634;2023-03-25T07:42:31;7.65;;;5.40;;
12208;SDS011;6167;43.080;25.634;2023-03-25T07:44:58;8.23;;;4.90;;
12208;SDS011;6167;43.080;25.634;2023-03-25T07:47:25;5.18;;;4.68;;
12208;SDS011;6167;43.080;25.634;2023-03-25T07:49:51;7.28;;;4.75;;
12208;SDS011;6167;43.080;25.634;2023-03-25T07:52:18;6.85;;;4.93;;
12208;SDS011;6167;43.080;25.634;2023-03-25T07:54:45;6.57;;;5.13;;
12208;SDS011;6167;43.080;25.634;2023-03-25T07:57:11;5.70;;;5.20;;
12208;SDS011;6167;43.080;25.634;2023-03-25T07:59:38;6.22;;;5.18;;
12208;SDS011;6167;43.080;25.634;2023-03-25T08:02:07;7.85;;;5.80;;
12208;SDS011;6167;43.080;25.634;2023-03-25T08:04:34;9.20;;;5.70;;
12208;SDS011;6167;43.080;25.634;2023-03-25T08:07:01;8.00;;;6.22;;
12208;SDS011;6167;43.080;25.634;2023-03-25T08:09:30;6.53;;;5.90;;
12208;SDS011;6167;43.080;25.634;2023-03-25T08:11:57;6.65;;;5.68;;
12208;SDS011;6167;43.080;25.634;2023-03-25T08:14:23;6.50;;;5.90;;
12208;SDS011;6167;43.080;25.634;2023-03-25T08:16:50;6.40;;;5.80;;
12208;SDS011;6167;43.080;25.634;2023-03-25T08:19:18;6.30;;;5.70;;
12208;SDS011;6167;43.080;25.634;2023-03-25T08:21:45;7.28;;;5.72;;
12208;SDS011;6167;43.080;25.634;2023-03-25T08:24:11;6.78;;;5.57;;
12208;SDS011;6167;43.080;25.634;2023-03-25T08:26:38;6.68;;;5.28;;
12208;SDS011;6167;43.080;25.634;2023-03-25T08:29:05;7.22;;;6.50;;
12208;SDS011;6167;43.080;25.634;2023-03-25T08:31:31;37.38;;;31.02;;
12208;SDS011;6167;43.080;25.634;2023-03-25T08:33:59;14.18;;;12.95;;
12208;SDS011;6167;43.080;25.634;2023-03-25T08:36:28;5.70;;;4.25;;
12208;SDS011;6167;43.080;25.634;2023-03-25T08:38:55;4.10;;;3.80;;
12208;SDS011;6167;43.080;25.634;2023-03-25T08:41:21;3.80;;;3.50;;
12208;SDS011;6167;43.080;25.634;2023-03-25T08:43:50;6.40;;;4.40;;
12208;SDS011;6167;43.080;25.634;2023-03-25T08:46:16;4.20;;;3.80;;
12208;SDS011;6167;43.080;25.634;2023-03-25T08:48:43;4.13;;;3.72;;
12208;SDS011;6167;43.080;25.634;2023-03-25T08:51:09;4.50;;;4.10;;
12208;SDS011;6167;43.080;25.634;2023-03-25T08:53:38;4.03;;;3.72;;
12208;SDS011;6167;43.080;25.634;2023-03-25T08:56:05;4.00;;;3.70;;
12208;SDS011;6167;43.080;25.634;2023-03-25T08:58:33;4.00;;;3.58;;
12208;SDS011;6167;43.080;25.634;2023-03-25T09:01:00;5.38;;;4.28;;
12208;SDS011;6167;43.080;25.634;2023-03-25T09:03:27;4.97;;;4.20;;
12208;SDS011;6167;43.080;25.634;2023-03-25T09:05:53;4.43;;;4.03;;
12208;SDS011;6167;43.080;25.634;2023-03-25T09:08:20;4.28;;;3.88;;
12208;SDS011;6167;43.080;25.634;2023-03-25T09:10:48;4.72;;;4.32;;
12208;SDS011;6167;43.080;25.634;2023-03-25T09:13:15;4.50;;;4.10;;
12208;SDS011;6167;43.080;25.634;2023-03-25T09:15:42;4.40;;;4.00;;
12208;SDS011;6167;43.080;25.634;2023-03-25T09:18:10;5.85;;;4.40;;
12208;SDS011;6167;43.080;25.634;2023-03-25T09:20:37;4.70;;;4.28;;
12208;SDS011;6167;43.080;25.634;2023-03-25T09:23:03;4.32;;;3.92;;
12208;SDS011;6167;43.080;25.634;2023-03-25T09:25:30;6.57;;;5.97;;
12208;SDS011;6167;43.080;25.634;2023-03-25T09:27:58;4.22;;;3.92;;
12208;SDS011;6167;43.080;25.634;2023-03-25T09:30:24;4.65;;;4.25;;
12208;SDS011;6167;43.080;25.634;2023-03-25T09:32:51;6.18;;;5.03;;
12208;SDS011;6167;43.080;25.634;2023-03-25T09:35:18;6.13;;;4.32;;
12208;SDS011;6167;43.080;25.634;2023-03-25T09:37:47;4.70;;;4.20;;
12208;SDS011;6167;43.080;25.634;2023-03-25T09:40:15;4.40;;;4.00;;
12208;SDS011;6167;43.080;25.634;2023-03-25T09:42:49;4.70;;;4.05;;
12208;SDS011;6167;43.080;25.634;2023-03-25T09:45:36;4.00;;;3.70;;
12208;SDS011;6167;43.080;25.634;2023-03-25T09:48:08;5.10;;;4.25;;
12208;SDS011;6167;43.080;25.634;2023-03-25T09:50:38;5.32;;;4.22;;
12208;SDS011;6167;43.080;25.634;2023-03-25T09:53:10;10.43;;;5.85;;
12208;SDS011;6167;43.080;25.634;2023-03-25T09:55:41;6.30;;;4.53;;
12208;SDS011;6167;43.080;25.634;2023-03-25T09:58:18;4.35;;;4.05;;
12208;SDS011;6167;43.080;25.634;2023-03-25T10:00:49;5.75;;;4.50;;
12208;SDS011;6167;43.080;25.634;2023-03-25T10:03:18;4.70;;;4.20;;
12208;SDS011;6167;43.080;25.634;2023-03-25T10:05:53;6.05;;;4.88;;
12208;SDS011;6167;43.080;25.634;2023-03-25T10:08:23;4.32;;;3.92;;
12208;SDS011;6167;43.080;25.634;2023-03-25T10:10:54;4.20;;;3.80;;
12208;SDS011;6167;43.080;25.634;2023-03-25T10:13:28;4.25;;;3.72;;
12208;SDS011;6167;43.080;25.634;2023-03-25T10:15:58;4.65;;;3.90;;
12208;SDS011;6167;43.080;25.634;2023-03-25T10:18:37;4.68;;;4.10;;
12208;SDS011;6167;43.080;25.634;2023-03-25T10:21:08;4.63;;;3.80;;
12208;SDS011;6167;43.080;25.634;2023-03-25T10:23:40;4.75;;;4.13;;
12208;SDS011;6167;43.080;25.634;2023-03-25T10:26:08;4.55;;;4.15;;
12208;SDS011;6167;43.080;25.634;2023-03-25T10:28:39;4.07;;;3.72;;
12208;SDS011;6167;43.080;25.634;2023-03-25T10:31:12;5.80;;;4.20;;
12208;SDS011;6167;43.080;25.634;2023-03-25T10:33:42;4.35;;;3.95;;
12208;SDS011;6167;43.080;25.634;2023-03-25T10:36:15;6.88;;;5.70;;
12208;SDS011;6167;43.080;25.634;2023-03-25T10:38:43;6.32;;;5.70;;
12208;SDS011;6167;43.080;25.634;2023-03-25T10:41:10;4.68;;;4.22;;
12208;SDS011;6167;43.080;25.634;2023-03-25T10:43:40;4.88;;;4.47;;
12208;SDS011;6167;43.080;25.634;2023-03-25T10:46:13;6.93;;;5.75;;
12208;SDS011;6167;43.080;25.634;2023-03-25T10:48:46;5.93;;;4.55;;
12208;SDS011;6167;43.080;25.634;2023-03-25T10:51:14;5.18;;;4.68;;
12208;SDS011;6167;43.080;25.634;2023-03-25T10:53:44;5.68;;;4.40;;
12208;SDS011;6167;43.080;25.634;2023-03-25T10:56:12;5.30;;;4.80;;
12208;SDS011;6167;43.080;25.634;2023-03-25T10:58:40;4.65;;;4.25;;
12208;SDS011;6167;43.080;25.634;2023-03-25T11:01:09;6.32;;;4.35;;
12208;SDS011;6167;43.080;25.634;2023-03-25T11:03:36;5.75;;;4.40;;
12208;SDS011;6167;43.080;25.634;2023-03-25T11:06:07;4.72;;;4.20;;
12208;SDS011;6167;43.080;25.634;2023-03-25T11:08:54;4.40;;;4.10;;
12208;SDS011;6167;43.080;25.634;2023-03-25T11:11:27;5.18;;;4.45;;
12208;SDS011;6167;43.080;25.634;2023-03-25T11:13:57;4.75;;;4.32;;
12208;SDS011;6167;43.080;25.634;2023-03-25T11:16:24;4.97;;;4.47;;
12208;SDS011;6167;43.080;25.634;2023-03-25T11:18:52;6.88;;;6.22;;
12208;SDS011;6167;43.080;25.634;2023-03-25T11:21:20;5.55;;;5.05;;
12208;SDS011;6167;43.080;25.634;2023-03-25T11:23:47;7.53;;;5.50;;
12208;SDS011;6167;43.080;25.634;2023-03-25T11:26:17;4.60;;;4.20;;
12208;SDS011;6167;43.080;25.634;2023-03-25T11:28:44;5.25;;;4.60;;
12208;SDS011;6167;43.080;25.634;2023-03-25T11:31:12;6.20;;;4.93;;
12208;SDS011;6167;43.080;25.634;2023-03-25T11:33:40;5.20;;;4.70;;
12208;SDS011;6167;43.080;25.634;2023-03-25T11:36:11;4.85;;;4.43;;
12208;SDS011;6167;43.080;25.634;2023-03-25T11:38:40;5.10;;;4.47;;
12208;SDS011;6167;43.080;25.634;2023-03-25T11:41:06;4.88;;;4.45;;
12208;SDS011;6167;43.080;25.634;2023-03-25T11:43:34;6.00;;;5.40;;
12208;SDS011;6167;43.080;25.634;2023-03-25T11:46:06;5.28;;;4.88;;
12208;SDS011;6167;43.080;25.634;2023-03-25T11:48:35;6.57;;;5.90;;
12208;SDS011;6167;43.080;25.634;2023-03-25T11:51:02;8.15;;;6.80;;
12208;SDS011;6167;43.080;25.634;2023-03-25T11:53:31;63.97;;;57.75;;
12208;SDS011;6167;43.080;25.634;2023-03-25T11:56:00;5.40;;;4.88;;
12208;SDS011;6167;43.080;25.634;2023-03-25T11:58:28;5.13;;;4.63;;
12208;SDS011;6167;43.080;25.634;2023-03-25T12:00:59;5.65;;;5.10;;
12208;SDS011;6167;43.080;25.634;2023-03-25T12:03:27;10.15;;;7.28;;
12208;SDS011;6167;43.080;25.634;2023-03-25T12:05:57;5.00;;;4.20;;
12208;SDS011;6167;43.080;25.634;2023-03-25T12:08:27;6.28;;;4.28;;
12208;SDS011;6167;43.080;25.634;2023-03-25T12:10:54;4.53;;;4.13;;
12208;SDS011;6167;43.080;25.634;2023-03-25T12:13:32;5.47;;;4.93;;
12208;SDS011;6167;43.080;25.634;2023-03-25T12:16:05;5.95;;;4.88;;
12208;SDS011;6167;43.080;25.634;2023-03-25T12:21:25;4.70;;;4.28;;
12208;SDS011;6167;43.080;25.634;2023-03-25T12:24:01;4.70;;;4.30;;
12208;SDS011;6167;43.080;25.634;2023-03-25T12:26:34;5.82;;;5.32;;
12208;SDS011;6167;43.080;25.634;2023-03-25T12:29:09;6.40;;;4.70;;
12208;SDS011;6167;43.080;25.634;2023-03-25T12:31:45;5.35;;;4.85;;
12208;SDS011;6167;43.080;25.634;2023-03-25T12:34:19;4.60;;;4.20;;
12208;SDS011;6167;43.080;25.634;2023-03-25T12:36:51;5.60;;;4.22;;
12208;SDS011;6167;43.080;25.634;2023-03-25T12:39:26;6.00;;;4.13;;
12208;SDS011;6167;43.080;25.634;2023-03-25T12:41:55;4.90;;;4.47;;
12208;SDS011;6167;43.080;25.634;2023-03-25T12:44:33;4.45;;;3.63;;
12208;SDS011;6167;43.080;25.634;2023-03-25T12:47:08;4.05;;;3.75;;
12208;SDS011;6167;43.080;25.634;2023-03-25T12:49:40;4.18;;;3.70;;
12208;SDS011;6167;43.080;25.634;2023-03-25T12:52:10;3.92;;;3.35;;
12208;SDS011;6167;43.080;25.634;2023-03-25T12:54:46;4.07;;;3.42;;
12208;SDS011;6167;43.080;25.634;2023-03-25T12:57:19;3.30;;;3.00;;
12208;SDS011;6167;43.080;25.634;2023-03-25T12:59:54;3.42;;;3.13;;
12208;SDS011;6167;43.080;25.634;2023-03-25T13:02:32;3.67;;;3.38;;
12208;SDS011;6167;43.080;25.634;2023-03-25T13:05:09;3.67;;;3.38;;
12208;SDS011;6167;43.080;25.634;2023-03-25T13:07:41;3.97;;;3.58;;
12208;SDS011;6167;43.080;25.634;2023-03-25T13:10:12;4.28;;;3.72;;
12208;SDS011;6167;43.080;25.634;2023-03-25T13:12:39;3.53;;;3.22;;
12208;SDS011;6167;43.080;25.634;2023-03-25T13:15:14;3.92;;;3.60;;
12208;SDS011;6167;43.080;25.634;2023-03-25T13:17:43;5.15;;;4.00;;
12208;SDS011;6167;43.080;25.634;2023-03-25T13:20:11;3.72;;;3.33;;
12208;SDS011;6167;43.080;25.634;2023-03-25T13:22:38;4.45;;;3.55;;
12208;SDS011;6167;43.080;25.634;2023-03-25T13:25:09;3.20;;;2.90;;
12208;SDS011;6167;43.080;25.634;2023-03-25T13:27:41;5.55;;;3.70;;
12208;SDS011;6167;43.080;25.634;2023-03-25T13:30:14;3.80;;;3.10;;
12208;SDS011;6167;43.080;25.634;2023-03-25T13:32:42;3.58;;;3.22;;
12208;SDS011;6167;43.080;25.634;2023-03-25T13:35:14;3.60;;;3.30;;
12208;SDS011;6167;43.080;25.634;2023-03-25T13:37:44;3.65;;;3.30;;
12208;SDS011;6167;43.080;25.634;2023-03-25T13:40:20;3.47;;;3.17;;
12208;SDS011;6167;43.080;25.634;2023-03-25T13:42:52;4.93;;;3.40;;
12208;SDS011;6167;43.080;25.634;2023-03-25T13:45:26;4.07;;;3.47;;
12208;SDS011;6167;43.080;25.634;2023-03-25T13:47:59;4.57;;;3.33;;
12208;SDS011;6167;43.080;25.634;2023-03-25T13:50:29;32.90;;;29.38;;
12208;SDS011;6167;43.080;25.634;2023-03-25T13:52:57;4.65;;;3.50;;
12208;SDS011;6167;43.080;25.634;2023-03-25T13:55:26;4.70;;;3.92;;
12208;SDS011;6167;43.080;25.634;2023-03-25T13:58:08;6.85;;;4.00;;
12208;SDS011;6167;43.080;25.634;2023-03-25T14:06:26;7.93;;;4.97;;
12208;SDS011;6167;43.080;25.634;2023-03-25T14:11:58;3.60;;;3.30;;
12208;SDS011;6167;43.080;25.634;2023-03-25T14:14:27;6.28;;;3.72;;
12208;SDS011;6167;43.080;25.634;2023-03-25T14:16:57;4.78;;;3.47;;
12208;SDS011;6167;43.080;25.634;2023-03-25T14:19:26;8.20;;;6.13;;
12208;SDS011;6167;43.080;25.634;2023-03-25T14:21:55;5.15;;;3.50;;
12208;SDS011;6167;43.080;25.634;2023-03-25T14:24:23;3.70;;;3.38;;
12208;SDS011;6167;43.080;25.634;2023-03-25T14:26:51;3.55;;;3.25;;
12208;SDS011;6167;43.080;25.634;2023-03-25T14:29:21;4.03;;;3.63;;
12208;SDS011;6167;43.080;25.634;2023-03-25T14:32:01;4.40;;;3.03;;
12208;SDS011;6167;43.080;25.634;2023-03-25T14:34:28;4.75;;;4.10;;
12208;SDS011;6167;43.080;25.634;2023-03-25T14:39:42;4.10;;;3.70;;
12208;SDS011;6167;43.080;25.634;2023-03-25T14:42:10;4.85;;;3.78;;
12208;SDS011;6167;43.080;25.634;2023-03-25T14:44:39;4.38;;;3.97;;
12208;SDS011;6167;43.080;25.634;2023-03-25T14:47:25;11.13;;;8.45;;
12208;SDS011;6167;43.080;25.634;2023-03-25T14:49:53;7.50;;;5.97;;
12208;SDS011;6167;43.080;25.634;2023-03-25T14:52:27;7.47;;;4.28;;
12208;SDS011;6167;43.080;25.634;2023-03-25T14:54:56;4.85;;;3.70;;
12208;SDS011;6167;43.080;25.634;2023-03-25T14:57:24;4.55;;;4.15;;
12208;SDS011;6167;43.080;25.634;2023-03-25T14:59:53;4.07;;;3.67;;
12208;SDS011;6167;43.080;25.634;2023-03-25T15:02:23;4.88;;;3.72;;
12208;SDS011;6167;43.080;25.634;2023-03-25T15:04:52;4.30;;;3.90;;
12208;SDS011;6167;43.080;25.634;2023-03-25T15:10:03;6.53;;;5.15;;
12208;SDS011;6167;43.080;25.634;2023-03-25T15:12:31;6.18;;;4.85;;
12208;SDS011;6167;43.080;25.634;2023-03-25T15:15:02;6.40;;;5.30;;
12208;SDS011;6167;43.080;25.634;2023-03-25T15:17:50;4.72;;;3.90;;
12208;SDS011;6167;43.080;25.634;2023-03-25T15:20:27;6.82;;;3.58;;